• Join FlightAware (Why Join?)
  • Login
  • US Flag 
04:42AM EDT


 

Airport Tracker/Info


-or-


 

Live Flight TrackerFlight Track Log ✈ N103MK ✈ 26-Jun-2013 ✈ KCUB - KPDK

Flight Track Log - Related Links

Times and Time Zones

All times are in EDT time to prevent confusion due to time zone crossing. See the N103MK flight status page for this flight to view local times or setup timezone preferences in your user account.

Time Position Orientation Groundspeed Altitude Reporting Facility
EDT Latitude Longitude Course Direction KTS MPH feet Rate Location/Type
09:21AM 33.8500 -81.2253 270° West  Level FlightAware Approximate
09:22AM 33.8670 -81.2747 273° West  Level FlightAware Approximate
09:23AM 33.8691 -81.3296 273° West  Level FlightAware Approximate
09:24AM 33.8683 -81.3848 273° West  Level FlightAware Approximate
09:25AM 33.8708 -81.4392 273° West  Level FlightAware Approximate
09:26AM 33.8733 -81.4937 273° West  Level FlightAware Approximate
09:27AM 33.8758 -81.5482 273° West  Level FlightAware Approximate
09:28AM 33.8783 -81.6027 273° West  Level FlightAware Approximate
09:29AM 33.8807 -81.6572 273° West  Level FlightAware Approximate
09:30AM 33.8831 -81.7117 273° West  Level FlightAware Approximate
09:31AM 33.8850 -81.7663 272° West  Level FlightAware Approximate
09:32AM 33.8868 -81.8208 272° West  Level FlightAware Approximate
09:33AM 33.8886 -81.8754 272° West  Level FlightAware Approximate
09:34AM 33.8904 -81.9299 272° West  Level FlightAware Approximate
09:35AM 33.8922 -81.9845 272° West  Level FlightAware Approximate
09:36AM 33.8939 -82.0390 272° West  Level FlightAware Approximate
09:37AM 33.8956 -82.0936 272° West  Level FlightAware Approximate
09:38AM 33.8973 -82.1481 272° West  Level FlightAware Approximate
09:39AM 33.8989 -82.2026 272° West  Level FlightAware Approximate
09:40AM 33.9005 -82.2572 272° West  Level FlightAware Approximate
09:41AM 33.9021 -82.3117 272° West  Level FlightAware Approximate
09:42AM 33.9037 -82.3663 272° West  Level FlightAware Approximate
09:43AM 33.9053 -82.4208 272° West  Level FlightAware Approximate
09:44AM 33.9068 -82.4754 272° West  Level FlightAware Approximate
09:45AM 33.9083 -82.5300 272° West  Level FlightAware Approximate
09:46AM 33.9098 -82.5845 272° West  Level FlightAware Approximate
09:47AM 33.9113 -82.6391 272° West  Level FlightAware Approximate
09:48AM 33.9127 -82.6936 272° West  Level FlightAware Approximate
09:49AM 33.9141 -82.7482 272° West  Level FlightAware Approximate
09:50AM 33.9155 -82.8028 272° West  Level FlightAware Approximate
09:51AM 33.9169 -82.8573 273° West  Level FlightAware Approximate
09:51AM 33.9667 -82.7833 272° West 159 183 10,100  Level Atlanta TRACON
09:52AM 33.9190 -82.9119 273° West  Level FlightAware Approximate
09:52AM 33.9667 -82.8333 270° West 160 184 10,100  Level Atlanta TRACON
09:53AM 33.9210 -82.9664 273° West  Level FlightAware Approximate
09:53AM 33.9667 -82.8833 270° West 158 182 10,200  Level Atlanta TRACON
09:54AM 33.9230 -83.0209 273° West  Level FlightAware Approximate
09:54AM 33.9667 -82.9500 270° West 173 199 9,700  Level Atlanta TRACON
09:55AM 33.9249 -83.0755 272° West  Level FlightAware Approximate
09:55AM 33.9833 -83.0000 292° West 169 194 9,300  Level Atlanta TRACON
09:56AM 33.9269 -83.1300 272° West  Level FlightAware Approximate
09:56AM 33.9833 -83.0500 270° West 173 199 8,900  Level Atlanta TRACON
09:57AM 34.0000 -83.1167 287° West 170 196 8,400 -420 Descending Atlanta TRACON
09:58AM 34.0000 -83.1667 270° West 170 196 8,100 -240 Descending Atlanta TRACON
09:59AM 34.0167 -83.2167 292° West 157 181 8,000 -60 Descending Atlanta TRACON
10:00AM 34.0167 -83.2667 270° West 153 176 8,000  Level Atlanta TRACON
10:01AM 34.0333 -83.3333 287° West 154 177 8,000  Level Atlanta TRACON
10:02AM 34.0333 -83.3833 270° West 156 180 8,000  Level Atlanta TRACON
10:03AM 34.0500 -83.4333 292° West 158 182 8,000 -240 Level Atlanta TRACON
10:04AM 34.0667 -83.4833 292° West 167 192 7,600 -420 Descending Atlanta TRACON
10:05AM 34.0667 -83.5333 270° West 169 194 7,200 -480 Descending Atlanta TRACON
10:06AM 34.0833 -83.6000 287° West 171 197 6,700 -480 Descending Atlanta TRACON
10:07AM 34.0833 -83.6500 270° West 171 197 6,300 -420 Descending Atlanta TRACON
10:08AM 34.1000 -83.7000 292° West 167 192 5,900 -180 Descending Atlanta TRACON
10:09AM 34.1000 -83.7500 270° West 158 182 6,000  Climbing Atlanta TRACON
10:10AM 34.1167 -83.8000 292° West 152 175 6,000  Level Atlanta TRACON
10:11AM 34.1167 -83.8500 270° West 149 171 6,000  Level Atlanta TRACON
10:12AM 34.1167 -83.9000 270° West 156 180 6,100 -240 Climbing Atlanta TRACON
10:13AM 34.1000 -83.9500 248° West 165 190 5,600 -480 Descending Atlanta TRACON
10:14AM 34.1000 -84.0000 270° West 167 192 5,200 -480 Descending Atlanta TRACON
10:15AM 34.0833 -84.0833 256° West 167 192 4,600 -480 Descending Atlanta TRACON
10:16AM 34.0833 -84.1167 270° West 168 193 4,200 -480 Descending Atlanta TRACON
10:17AM 34.0667 -84.1833 253° West 156 180 3,800 -480 Descending Atlanta TRACON
10:18AM 34.0500 -84.2167 239° Southwest 167 192 3,300 -480 Descending Atlanta TRACON
10:19AM 34.0167 -84.2333 203° Southwest 166 191 3,000 -240 Descending Atlanta TRACON
10:20AM 33.9667 -84.2500 195° South 151 174 2,900 -480 Descending Atlanta TRACON
10:21AM 33.9333 -84.2833 220° Southwest 160 184 2,100 -780 Descending Atlanta TRACON
10:22AM 33.9000 -84.2833 180° South 122 140 1,400 -720 Descending Atlanta TRACON
10:24AM 33.8667 -84.3000 270° West  Level FlightAware Approximate